This is the latest recevied weather packets stored in our database for station/object JE7UPL-13. If no packets are shown the sender has not sent any weather packets the latest 10 day(s).
| Time | Temp. | Humidity | Pressure | Rain* | Wind** | Luminosity | Snow |
|---|---|---|---|---|---|---|---|
| 1777768205 | 20.56° C | 33% | 1005.8 hPa | 0 mm | - | - | - |
| 1777767304 | 19.44° C | 35% | 1006.2 hPa | 0 mm | - | - | - |
| 1777766405 | 18.33° C | 39% | 1006.6 hPa | 0 mm | - | - | - |
| 1777765505 | 17.78° C | 38% | 1006.5 hPa | 0 mm | - | - | - |
| 1777764605 | 17.78° C | 39% | 1006.9 hPa | 0 mm | - | - | - |
| 1777763704 | 17.22° C | 39% | 1006.8 hPa | 0 mm | - | - | - |
| 1777762805 | 16.67° C | 41% | 1007.1 hPa | 0 mm | - | - | - |
| 1777761904 | 16.67° C | 43% | 1007.3 hPa | 0 mm | - | - | - |
| 1777761004 | 16.11° C | 45% | 1007.5 hPa | 0 mm | - | - | - |
| 1777760105 | 15.56° C | 48% | 1007.4 hPa | 0 mm | - | - | - |
| 1777759205 | 15.56° C | 50% | 1007.3 hPa | 0 mm | - | - | - |
| 1777758304 | 14.44° C | 57% | 1007 hPa | 0 mm | - | - | - |
| 1777757405 | 13.89° C | 58% | 1007.4 hPa | 0 mm | - | - | - |
| 1777756504 | 13.33° C | 57% | 1007.2 hPa | 0 mm | - | - | - |
| 1777755605 | 13.33° C | 57% | 1007.2 hPa | 0 mm | - | - | - |
| 1777754704 | 13.33° C | 57% | 1006.7 hPa | 0 mm | - | - | - |
| 1777753805 | 13.33° C | 57% | 1006.6 hPa | 0 mm | - | - | - |
| 1777752904 | 12.78° C | 58% | 1006.5 hPa | 0 mm | - | - | - |
| 1777752005 | 12.22° C | 58% | 1006.2 hPa | 0 mm | - | - | - |
| 1777751105 | 12.22° C | 58% | 1006.2 hPa | 0 mm | - | - | - |
| 1777750206 | 12.78° C | 55% | 1006.2 hPa | 0 mm | - | - | - |
| 1777749305 | 12.78° C | 54% | 1006 hPa | 0 mm | - | - | - |
| 1777748405 | 13.33° C | 54% | 1005.9 hPa | 0 mm | - | - | - |
| 1777747504 | 12.78° C | 52% | 1005.9 hPa | 0 mm | - | - | - |
| 1777746605 | 12.78° C | 53% | 1005.9 hPa | 0 mm | - | - | - |
* Rain latest hour (hover to see other rain measurements)
** Current wind speed in m/s (hover to see current wind gust speed)